createdAt,value
2023-04-14T00:00:08.070Z,75.77
2023-04-14T00:03:22.047Z,77.85
2023-04-14T00:06:28.202Z,78.47
2023-04-14T00:09:32.270Z,77.53
2023-04-14T00:12:37.005Z,79.35
2023-04-14T00:15:43.157Z,79.31
2023-04-14T00:18:47.071Z,77.83
2023-04-14T00:21:51.821Z,77.31
2023-04-14T00:24:56.110Z,77.19
2023-04-14T00:28:00.353Z,77.62
2023-04-14T00:31:04.480Z,78.42
2023-04-14T00:34:08.622Z,78.08
2023-04-14T00:37:13.099Z,78.16
2023-04-14T00:40:17.656Z,77.26
2023-04-14T00:43:22.179Z,76.82
2023-04-14T00:46:26.758Z,76.67
2023-04-14T00:49:31.204Z,76.63
2023-04-14T00:52:35.658Z,76.72
2023-04-14T00:55:41.871Z,78.50
2023-04-14T00:58:46.567Z,78.89
2023-04-14T01:01:51.251Z,77.88
2023-04-14T01:04:57.020Z,76.76
2023-04-14T01:08:02.442Z,79.60
2023-04-14T01:11:13.607Z,79.90
2023-04-14T01:14:43.331Z,81.35
2023-04-14T01:17:58.658Z,77.20
2023-04-14T01:21:18.781Z,75.55
2023-04-14T01:24:26.670Z,76.99
2023-04-14T01:27:52.899Z,77.54
2023-04-14T01:31:18.356Z,78.01
2023-04-14T01:34:49.415Z,76.76
2023-04-14T01:38:04.925Z,76.28
2023-04-14T01:41:14.233Z,78.25
2023-04-14T01:44:20.794Z,79.85
2023-04-14T01:47:27.082Z,79.91
2023-04-14T01:50:33.747Z,79.88
2023-04-14T01:53:44.050Z,81.25
2023-04-14T01:56:49.895Z,82.47
2023-04-14T01:59:58.602Z,81.81
2023-04-14T02:03:06.191Z,81.68
2023-04-14T02:06:14.147Z,79.68
2023-04-14T02:09:20.260Z,78.42
2023-04-14T02:12:26.473Z,79.62
2023-04-14T02:15:33.156Z,78.45
2023-04-14T02:18:39.675Z,80.06
2023-04-14T02:21:44.844Z,80.05
2023-04-14T02:24:49.361Z,78.45
2023-04-14T02:28:04.790Z,78.08
2023-04-14T02:31:13.337Z,78.48
2023-04-14T02:34:25.726Z,77.82
2023-04-14T02:37:44.635Z,76.97
2023-04-14T02:40:54.884Z,77.58
2023-04-14T02:44:12.208Z,77.11
2023-04-14T02:47:25.238Z,75.90
2023-04-14T02:50:34.652Z,76.08
2023-04-14T02:53:50.201Z,75.73
2023-04-14T02:57:12.068Z,74.47
2023-04-14T03:00:20.546Z,72.03
2023-04-14T03:03:29.452Z,72.22
2023-04-14T03:06:39.898Z,72.07
2023-04-14T03:09:46.544Z,71.18
2023-04-14T03:12:53.374Z,71.64
2023-04-14T03:16:00.596Z,71.48
2023-04-14T03:19:08.973Z,71.31
2023-04-14T03:22:19.319Z,70.08
2023-04-14T03:25:28.508Z,70.14
2023-04-14T03:28:37.544Z,70.25
2023-04-14T03:31:46.638Z,70.40
2023-04-14T03:34:59.082Z,69.43
2023-04-14T03:38:09.925Z,69.61
2023-04-14T03:41:15.825Z,68.54
2023-04-14T03:44:22.706Z,67.26
2023-04-14T03:47:32.058Z,67.39
2023-04-14T03:50:44.552Z,65.55
2023-04-14T03:53:49.042Z,67.77
2023-04-14T03:56:57.661Z,68.46
2023-04-14T04:00:06.251Z,70.10
2023-04-14T04:03:18.559Z,67.88
2023-04-14T04:06:23.825Z,67.67
2023-04-14T04:09:30.701Z,69.49
2023-04-14T04:12:39.051Z,67.32
2023-04-14T04:15:46.773Z,67.21
2023-04-14T04:18:53.255Z,64.25
2023-04-14T04:22:05.912Z,67.70
2023-04-14T04:25:15.255Z,66.28
2023-04-14T04:28:28.640Z,64.74
2023-04-14T04:31:35.179Z,62.20
2023-04-14T04:34:40.768Z,59.72
2023-04-14T04:37:45.640Z,60.27
2023-04-14T04:40:50.741Z,60.20
2023-04-14T04:44:00.293Z,60.02
2023-04-14T04:47:05.009Z,59.75
2023-04-14T04:50:09.676Z,58.05
2023-04-14T04:53:14.637Z,58.32
2023-04-14T04:56:19.332Z,56.32
2023-04-14T04:59:23.692Z,58.39
2023-04-14T05:02:28.331Z,56.54
2023-04-14T05:05:37.305Z,54.86
2023-04-14T05:08:41.720Z,56.02
2023-04-14T05:11:46.326Z,54.88
2023-04-14T05:14:51.215Z,56.72
2023-04-14T05:17:55.219Z,57.40
2023-04-14T05:21:14.174Z,54.72
2023-04-14T05:24:18.620Z,54.87
2023-04-14T05:27:22.980Z,55.03
2023-04-14T05:30:27.452Z,52.97
2023-04-14T05:33:32.021Z,54.75
2023-04-14T05:36:36.066Z,53.11
2023-04-14T05:39:41.809Z,55.43
2023-04-14T05:42:45.742Z,55.85
2023-04-14T05:45:49.673Z,55.52
2023-04-14T05:48:53.893Z,54.76
2023-04-14T05:51:58.024Z,53.89
2023-04-14T05:55:02.368Z,52.89
2023-04-14T05:58:06.847Z,55.16
2023-04-14T06:01:11.007Z,54.57
2023-04-14T06:04:16.564Z,53.41
2023-04-14T06:07:21.262Z,54.00
2023-04-14T06:10:25.318Z,54.08
2023-04-14T06:13:31.992Z,53.08
2023-04-14T06:16:38.122Z,52.02
2023-04-14T06:19:54.417Z,53.26
2023-04-14T06:23:01.704Z,53.35
2023-04-14T06:26:06.446Z,52.66
2023-04-14T06:29:10.453Z,52.52
2023-04-14T06:32:14.534Z,53.19
2023-04-14T06:35:31.975Z,53.26
2023-04-14T06:38:37.710Z,53.07
2023-04-14T06:41:41.660Z,53.60
2023-04-14T06:44:49.369Z,53.15
2023-04-14T06:47:53.221Z,52.32
2023-04-14T06:50:58.186Z,52.29
2023-04-14T06:54:04.635Z,51.06
2023-04-14T06:57:09.160Z,51.88
2023-04-14T07:00:14.492Z,52.03
2023-04-14T07:03:18.672Z,51.70
2023-04-14T07:06:23.022Z,52.19
2023-04-14T07:09:27.234Z,50.77
2023-04-14T07:12:31.721Z,50.93
2023-04-14T07:15:35.983Z,49.95
2023-04-14T07:18:40.366Z,50.04
2023-04-14T07:21:46.837Z,50.19
2023-04-14T07:24:51.727Z,50.51
2023-04-14T07:28:03.172Z,48.69
2023-04-14T07:31:11.261Z,48.98
2023-04-14T07:34:15.543Z,47.77
2023-04-14T07:37:20.680Z,46.16
2023-04-14T07:40:25.056Z,49.14
2023-04-14T07:43:30.649Z,49.30
2023-04-14T07:46:35.177Z,47.98
2023-04-14T07:49:39.771Z,49.50
2023-04-14T07:52:43.638Z,48.66
2023-04-14T07:55:48.097Z,49.01
2023-04-14T07:58:52.379Z,49.61
2023-04-14T08:01:56.565Z,49.44
2023-04-14T08:05:00.550Z,49.28
2023-04-14T08:08:06.679Z,49.54
2023-04-14T08:11:11.305Z,49.95
2023-04-14T08:14:16.340Z,49.82
2023-04-14T08:17:21.653Z,49.85
2023-04-14T08:20:25.877Z,48.84
2023-04-14T08:23:29.853Z,49.10
2023-04-14T08:27:12.181Z,48.22
2023-04-14T08:30:40.769Z,49.13
2023-04-14T08:34:03.406Z,49.59
2023-04-14T08:37:10.081Z,49.64
2023-04-14T08:40:17.763Z,49.78
2023-04-14T08:43:22.787Z,50.70
2023-04-14T08:46:29.145Z,50.87
2023-04-14T08:49:43.539Z,50.01
2023-04-14T08:52:50.360Z,50.53
2023-04-14T08:55:58.067Z,50.56
2023-04-14T08:59:03.372Z,50.59
2023-04-14T09:02:08.015Z,51.22
2023-04-14T09:05:13.867Z,51.13
2023-04-14T09:08:18.184Z,51.19
2023-04-14T09:11:23.378Z,51.63
2023-04-14T09:14:28.450Z,51.57
2023-04-14T09:17:37.434Z,51.52
2023-04-14T09:20:42.409Z,52.43
2023-04-14T09:23:47.148Z,51.80
2023-04-14T09:26:53.894Z,52.48
2023-04-14T09:30:00.653Z,52.37
2023-04-14T09:33:08.397Z,53.36
2023-04-14T09:36:21.187Z,54.32
2023-04-14T09:39:25.150Z,54.05
2023-04-14T09:42:43.682Z,55.40
2023-04-14T09:45:48.461Z,55.05
2023-04-14T09:48:57.162Z,55.73
2023-04-14T09:52:11.274Z,55.38
2023-04-14T09:55:17.798Z,55.47
2023-04-14T09:58:27.321Z,55.67
2023-04-14T10:01:35.143Z,56.10
2023-04-14T10:04:40.021Z,56.58
2023-04-14T10:07:45.559Z,56.91
2023-04-14T10:10:49.867Z,55.90
2023-04-14T10:13:59.300Z,56.32
2023-04-14T10:17:03.724Z,57.18
2023-04-14T10:20:08.747Z,58.30
2023-04-14T10:23:13.534Z,57.71
2023-04-14T10:26:18.732Z,57.97
2023-04-14T10:29:23.962Z,58.09
2023-04-14T10:32:32.858Z,58.25
2023-04-14T10:35:47.936Z,59.47
2023-04-14T10:39:04.255Z,59.71
2023-04-14T10:42:09.208Z,59.71
2023-04-14T10:45:13.557Z,59.47
2023-04-14T10:48:18.440Z,58.52
2023-04-14T10:51:36.944Z,58.92
2023-04-14T10:55:02.122Z,60.08
2023-04-14T10:58:07.728Z,59.76
2023-04-14T11:01:33.163Z,59.05
2023-04-14T11:05:19.141Z,59.53
2023-04-14T11:08:28.049Z,61.16
2023-04-14T11:11:32.501Z,61.43
2023-04-14T11:14:37.483Z,62.14
2023-04-14T11:17:47.555Z,62.75
2023-04-14T11:20:54.060Z,62.55
2023-04-14T11:24:00.267Z,60.40
2023-04-14T11:27:05.594Z,59.73
2023-04-14T11:30:20.747Z,59.95
2023-04-14T11:33:32.555Z,60.07
2023-04-14T11:36:40.234Z,61.44
2023-04-14T11:39:45.251Z,60.41
2023-04-14T11:42:55.356Z,60.33
2023-04-14T11:46:01.744Z,60.01
2023-04-14T11:49:06.831Z,59.73
2023-04-14T11:52:11.388Z,60.32
2023-04-14T11:55:18.508Z,61.44
2023-04-14T11:58:25.438Z,60.54
2023-04-14T12:01:30.937Z,60.40
2023-04-14T12:04:35.901Z,60.82
2023-04-14T12:07:40.872Z,59.79
2023-04-14T12:10:47.689Z,60.94
2023-04-14T12:13:53.700Z,61.43
2023-04-14T12:16:59.530Z,61.52
2023-04-14T12:20:06.307Z,62.93
2023-04-14T12:23:10.855Z,64.12
2023-04-14T12:26:15.790Z,63.18
2023-04-14T12:29:23.748Z,64.46
2023-04-14T12:32:31.553Z,64.46
2023-04-14T12:35:36.115Z,64.74
2023-04-14T12:38:40.650Z,65.56
2023-04-14T12:41:44.700Z,65.88
2023-04-14T12:45:03.103Z,66.00
2023-04-14T12:48:07.864Z,66.83
2023-04-14T12:51:22.360Z,66.84
2023-04-14T12:54:27.096Z,66.40
2023-04-14T12:57:33.497Z,66.22
2023-04-14T13:00:38.145Z,66.26
2023-04-14T13:03:51.439Z,67.70
2023-04-14T13:06:56.371Z,68.08
2023-04-14T13:10:00.943Z,68.15
2023-04-14T13:13:10.599Z,68.56
2023-04-14T13:16:22.948Z,68.06
2023-04-14T13:19:31.193Z,68.44
2023-04-14T13:22:36.229Z,68.66
2023-04-14T13:25:40.703Z,69.43
2023-04-14T13:28:44.653Z,68.29
2023-04-14T13:31:49.045Z,68.79
2023-04-14T13:34:53.621Z,69.29
2023-04-14T13:37:59.969Z,68.54
2023-04-14T13:41:07.381Z,67.61
2023-04-14T13:44:16.357Z,68.66
2023-04-14T13:47:29.422Z,68.47
2023-04-14T13:50:40.421Z,67.88
2023-04-14T13:53:51.573Z,67.79
2023-04-14T13:57:02.864Z,68.75
2023-04-14T14:00:11.282Z,68.70
2023-04-14T14:03:18.253Z,69.11
2023-04-14T14:06:24.696Z,69.02
2023-04-14T14:09:30.432Z,68.97
2023-04-14T14:12:34.943Z,70.14
2023-04-14T14:15:40.127Z,68.86
2023-04-14T14:18:45.966Z,68.28
2023-04-14T14:21:49.543Z,70.22
2023-04-14T14:25:06.899Z,69.40
2023-04-14T14:28:19.979Z,69.65
2023-04-14T14:31:24.722Z,69.82
2023-04-14T14:34:29.218Z,69.52
2023-04-14T14:37:33.710Z,70.01
2023-04-14T14:40:38.182Z,69.82
2023-04-14T14:43:42.616Z,70.72
2023-04-14T14:46:48.050Z,69.49
2023-04-14T14:49:59.586Z,67.74
2023-04-14T14:53:04.863Z,67.50
2023-04-14T14:56:09.384Z,66.65
2023-04-14T14:59:13.766Z,65.89
2023-04-14T15:02:18.492Z,64.69
2023-04-14T15:05:23.052Z,64.34
2023-04-14T15:08:27.422Z,65.08
2023-04-14T15:11:31.695Z,67.00
2023-04-14T15:14:36.478Z,68.97
2023-04-14T15:17:41.108Z,70.31
2023-04-14T15:20:45.680Z,71.48
2023-04-14T15:23:50.585Z,71.66
2023-04-14T15:26:54.962Z,72.00
2023-04-14T15:29:59.475Z,71.56
2023-04-14T15:33:04.047Z,71.96
2023-04-14T15:36:08.746Z,70.95
2023-04-14T15:39:13.465Z,71.21
2023-04-14T15:42:17.923Z,72.23
2023-04-14T15:45:22.505Z,72.02
2023-04-14T15:48:27.307Z,72.28
2023-04-14T15:51:31.741Z,72.34
2023-04-14T15:54:36.680Z,73.32
2023-04-14T15:57:41.594Z,72.02
2023-04-14T16:00:46.688Z,72.90
2023-04-14T16:03:52.616Z,73.18
2023-04-14T16:06:57.247Z,73.29
2023-04-14T16:10:02.249Z,73.73
2023-04-14T16:13:07.180Z,73.26
2023-04-14T16:16:13.757Z,72.42
2023-04-14T16:19:18.577Z,72.66
2023-04-14T16:22:23.886Z,73.46
2023-04-14T16:25:28.692Z,73.62
2023-04-14T16:28:33.174Z,75.74
2023-04-14T16:31:37.965Z,75.80
2023-04-14T16:34:42.122Z,75.43
2023-04-14T16:37:46.402Z,74.85
2023-04-14T16:40:58.308Z,74.39
2023-04-14T16:44:02.830Z,74.57
2023-04-14T16:47:07.658Z,74.13
2023-04-14T16:50:12.554Z,74.18
2023-04-14T16:53:17.620Z,75.38
2023-04-14T16:56:22.292Z,75.86
2023-04-14T16:59:26.910Z,75.81
2023-04-14T17:02:31.521Z,75.26
2023-04-14T17:05:36.146Z,75.21
2023-04-14T17:08:40.812Z,74.89
2023-04-14T17:11:45.446Z,74.91
2023-04-14T17:14:49.817Z,75.32
2023-04-14T17:17:54.279Z,75.49
2023-04-14T17:20:59.272Z,75.51
2023-04-14T17:24:05.564Z,76.12
2023-04-14T17:27:10.009Z,75.23
2023-04-14T17:30:14.900Z,74.82
2023-04-14T17:33:20.733Z,75.63
2023-04-14T17:36:25.054Z,75.38
2023-04-14T17:39:29.700Z,75.01
2023-04-14T17:42:35.111Z,76.02
2023-04-14T17:45:43.031Z,75.90
2023-04-14T17:48:47.742Z,75.94
2023-04-14T17:51:52.428Z,75.60
2023-04-14T17:54:56.774Z,76.52
2023-04-14T17:58:01.750Z,77.33
2023-04-14T18:01:06.594Z,76.67
2023-04-14T18:04:11.157Z,76.36
2023-04-14T18:07:15.630Z,76.25
2023-04-14T18:10:20.416Z,75.79
2023-04-14T18:13:24.704Z,77.60
2023-04-14T18:16:29.433Z,76.76
2023-04-14T18:19:36.623Z,76.42
2023-04-14T18:22:41.189Z,74.67
2023-04-14T18:28:53.191Z,75.86
2023-04-14T18:31:59.157Z,76.20
2023-04-14T18:35:03.050Z,74.90
2023-04-14T18:38:08.328Z,76.40
2023-04-14T18:41:13.154Z,77.82
2023-04-14T18:44:17.914Z,77.50
2023-04-14T18:47:23.102Z,77.46
2023-04-14T18:50:28.073Z,79.05
2023-04-14T18:53:32.733Z,79.75
2023-04-14T18:56:37.713Z,80.34
2023-04-14T18:59:42.789Z,79.11
2023-04-14T19:02:47.764Z,76.53
2023-04-14T19:05:52.846Z,75.70
2023-04-14T19:09:02.022Z,75.20
2023-04-14T19:12:12.815Z,75.39
2023-04-14T19:15:29.607Z,75.43
2023-04-14T19:18:33.944Z,76.15
2023-04-14T19:21:38.494Z,76.60
2023-04-14T19:24:43.095Z,76.72
2023-04-14T19:27:47.663Z,78.33
2023-04-14T19:30:51.823Z,78.58
2023-04-14T19:33:57.121Z,78.65
2023-04-14T19:37:04.932Z,78.31
2023-04-14T19:40:11.814Z,77.79
2023-04-14T19:43:19.643Z,76.96
2023-04-14T19:46:24.300Z,78.10
2023-04-14T19:49:29.154Z,78.99
2023-04-14T19:52:33.691Z,77.95
2023-04-14T19:55:38.108Z,77.15
2023-04-14T19:58:42.581Z,77.35
2023-04-14T20:01:48.232Z,78.34
2023-04-14T20:04:52.332Z,80.38
2023-04-14T20:07:56.985Z,79.07
2023-04-14T20:11:01.312Z,78.80
2023-04-14T20:14:06.163Z,78.86
2023-04-14T20:17:10.691Z,79.93
2023-04-14T20:20:17.283Z,79.65
2023-04-14T20:23:22.570Z,80.41
2023-04-14T20:26:27.048Z,81.04
2023-04-14T20:29:31.495Z,79.51
2023-04-14T20:32:36.466Z,79.33
2023-04-14T20:35:41.342Z,78.89
2023-04-14T20:38:45.770Z,77.92
2023-04-14T20:41:50.275Z,77.88
2023-04-14T20:44:54.514Z,77.65
2023-04-14T20:47:59.748Z,78.03
2023-04-14T20:51:04.397Z,77.64
2023-04-14T20:54:08.595Z,78.11
2023-04-14T20:57:13.132Z,78.06
2023-04-14T21:00:19.602Z,77.91
2023-04-14T21:03:24.651Z,78.09
2023-04-14T21:06:30.068Z,78.91
2023-04-14T21:09:35.887Z,79.01
2023-04-14T21:13:54.281Z,78.85
2023-04-14T21:16:04.972Z,79.03
2023-04-14T21:19:14.293Z,77.86
2023-04-14T21:22:18.764Z,76.23
2023-04-14T21:25:24.085Z,74.36
2023-04-14T21:28:28.699Z,70.55
2023-04-14T21:31:33.905Z,68.18
2023-04-14T21:34:38.754Z,66.48
2023-04-14T21:37:43.615Z,65.00
2023-04-14T21:40:47.695Z,62.96
2023-04-14T21:43:52.366Z,61.62
2023-04-14T21:46:57.738Z,60.00
2023-04-14T21:50:02.182Z,59.86
2023-04-14T21:53:07.403Z,56.90
2023-04-14T21:56:13.771Z,54.96
2023-04-14T21:59:18.519Z,54.64
2023-04-14T22:02:23.654Z,51.81
2023-04-14T22:05:28.274Z,49.53
2023-04-14T22:08:32.821Z,47.93
2023-04-14T22:11:38.479Z,47.40
2023-04-14T22:14:46.490Z,46.74
2023-04-14T22:17:54.387Z,45.93
2023-04-14T22:20:59.525Z,44.43
2023-04-14T22:24:03.967Z,43.29
2023-04-14T22:27:10.715Z,42.43
2023-04-14T22:30:15.115Z,40.21
2023-04-14T22:33:19.664Z,40.80
2023-04-14T22:36:24.133Z,41.42
2023-04-14T22:39:28.877Z,41.13
2023-04-14T22:42:32.728Z,41.38
2023-04-14T22:45:38.680Z,40.29
2023-04-14T22:48:43.338Z,39.61
2023-04-14T22:51:47.999Z,40.24
2023-04-14T22:54:52.538Z,40.48
2023-04-14T22:57:56.703Z,40.44
2023-04-14T23:01:09.125Z,39.64
2023-04-14T23:04:20.008Z,40.98
2023-04-14T23:07:24.310Z,41.66
2023-04-14T23:10:29.360Z,43.05
2023-04-14T23:13:34.328Z,43.00
2023-04-14T23:16:38.937Z,43.17
2023-04-14T23:19:43.433Z,41.80
2023-04-14T23:22:47.540Z,42.27
2023-04-14T23:25:52.200Z,43.02
2023-04-14T23:28:56.749Z,43.11
2023-04-14T23:32:00.785Z,42.74
2023-04-14T23:35:05.167Z,42.76
2023-04-14T23:38:09.863Z,42.96
2023-04-14T23:41:14.318Z,42.60
2023-04-14T23:44:18.161Z,42.00
2023-04-14T23:47:23.643Z,42.36
2023-04-14T23:51:01.178Z,42.72
2023-04-14T23:53:52.942Z,42.03
2023-04-14T23:56:57.648Z,42.66
